Time;durP1;ratioP1;P1;durP2;ratioP2;P2;SDS_P1;SDS_P2;PMS_P1;PMS_P2;Temp;Humidity;BMP_temperature;BMP_pressure;BME280_temperature;BME280_humidity;BME280_pressure;Samples;Min_cycle;Max_cycle;Signal;HPM_P1;HPM_P2
2023/05/08 00:02:04;;;;;;;14.57;7.90;;;17.10;99.90;;;;;;4878692;29;20025;-78
2023/05/08 00:04:30;;;;;;;13.20;8.18;;;16.90;99.90;;;;;;4877455;29;20081;-77
2023/05/08 00:06:56;;;;;;;16.98;7.60;;;16.90;99.90;;;;;;4877539;29;20392;-77
2023/05/08 00:09:22;;;;;;;15.68;7.22;;;16.80;99.90;;;;;;4877417;29;20453;-77
2023/05/08 00:11:48;;;;;;;16.80;8.18;;;16.90;99.90;;;;;;4876962;29;20100;-70
2023/05/08 00:14:14;;;;;;;14.02;7.68;;;16.70;99.90;;;;;;4877859;29;20039;-73
2023/05/08 00:16:39;;;;;;;19.27;8.05;;;16.70;99.90;;;;;;4880405;29;20108;-76
2023/05/08 00:19:06;;;;;;;14.73;7.50;;;16.70;99.90;;;;;;4877332;29;20162;-77
2023/05/08 00:21:32;;;;;;;14.68;6.82;;;16.70;99.90;;;;;;4877021;29;20112;-75
2023/05/08 00:23:58;;;;;;;15.50;7.82;;;16.70;99.90;;;;;;4877507;29;20108;-76
2023/05/08 00:26:24;;;;;;;13.68;7.28;;;16.60;99.90;;;;;;4876954;29;20061;-74
2023/05/08 00:28:50;;;;;;;11.23;7.03;;;16.70;99.90;;;;;;4860412;29;20569;-75
2023/05/08 00:31:16;;;;;;;13.60;7.70;;;16.80;99.90;;;;;;4877051;29;20111;-72
2023/05/08 00:33:42;;;;;;;11.00;6.75;;;16.80;99.90;;;;;;4860283;29;20109;-72
2023/05/08 00:36:08;;;;;;;12.73;6.88;;;16.90;99.90;;;;;;4860461;29;20760;-76
2023/05/08 00:38:35;;;;;;;13.32;7.03;;;17.00;99.90;;;;;;4876928;29;20049;-74
2023/05/08 00:41:01;;;;;;;13.20;6.68;;;17.00;99.90;;;;;;4877136;29;20075;-71
2023/05/08 00:43:28;;;;;;;13.05;6.13;;;17.20;99.90;;;;;;4876793;29;20549;-72
2023/05/08 00:45:55;;;;;;;11.20;6.60;;;17.30;99.90;;;;;;4877043;29;20029;-74
2023/05/08 00:48:24;;;;;;;15.80;6.28;;;17.40;99.90;;;;;;4860159;29;20017;-75
2023/05/08 00:50:53;;;;;;;9.32;5.30;;;17.60;99.90;;;;;;4876795;29;20044;-71
2023/05/08 00:53:21;;;;;;;8.45;4.38;;;17.60;99.90;;;;;;4876013;29;20066;-75
2023/05/08 00:55:48;;;;;;;15.40;4.65;;;17.60;99.90;;;;;;4876813;29;20022;-74
2023/05/08 00:58:14;;;;;;;7.13;3.67;;;17.70;99.90;;;;;;4880357;29;20043;-73
2023/05/08 01:00:42;;;;;;;7.28;3.60;;;17.70;99.90;;;;;;4859490;29;20025;-77
2023/05/08 01:03:09;;;;;;;7.78;4.15;;;17.60;99.90;;;;;;4859502;29;20057;-76
2023/05/08 01:05:35;;;;;;;7.10;3.90;;;17.50;99.90;;;;;;4881595;29;20096;-71
2023/05/08 01:08:01;;;;;;;9.35;3.70;;;17.40;99.90;;;;;;4879582;29;20157;-73
2023/05/08 01:10:54;;;;;;;5.72;3.72;;;17.50;99.90;;;;;;4876677;29;20112;-77
2023/05/08 01:13:28;;;;;;;5.40;3.53;;;17.50;99.90;;;;;;4863039;29;20048;-71
2023/05/08 01:16:02;;;;;;;6.55;3.58;;;17.40;99.90;;;;;;4882678;29;20064;-77
2023/05/08 01:18:37;;;;;;;9.77;4.05;;;17.30;99.90;;;;;;4862871;29;20516;-76
2023/05/08 01:21:12;;;;;;;5.95;3.22;;;17.30;99.90;;;;;;4882323;29;20028;-70
2023/05/08 01:23:51;;;;;;;5.65;3.38;;;17.20;99.90;;;;;;4866764;29;20029;-72
2023/05/08 01:26:35;;;;;;;6.95;3.63;;;17.10;99.90;;;;;;4863230;29;20385;-79
2023/05/08 01:29:07;;;;;;;6.75;3.58;;;17.10;99.90;;;;;;4880229;29;20024;-78
2023/05/08 01:32:23;;;;;;;4.37;2.90;;;17.10;99.90;;;;;;4879989;29;20088;-73
2023/05/08 01:35:09;;;;;;;10.52;4.10;;;17.00;99.90;;;;;;4838097;29;20273;-78
2023/05/08 01:37:45;;;;;;;4.05;3.05;;;17.00;99.90;;;;;;4838965;29;20038;-77
2023/05/08 01:40:32;;;;;;;5.97;3.72;;;16.90;99.90;;;;;;4840613;29;20034;-71
2023/05/08 01:43:24;;;;;;;8.63;3.40;;;16.90;99.90;;;;;;4840630;29;20570;-77
2023/05/08 01:45:53;;;;;;;10.07;4.35;;;16.90;99.90;;;;;;4823081;29;20091;-71
2023/05/08 01:48:24;;;;;;;5.70;3.72;;;16.80;99.90;;;;;;4840972;29;20098;-78
2023/05/08 01:50:57;;;;;;;8.60;4.30;;;16.80;99.90;;;;;;4834498;29;20076;-77
2023/05/08 01:53:33;;;;;;;7.93;3.85;;;16.80;99.90;;;;;;4837411;29;20048;-78
2023/05/08 01:56:07;;;;;;;10.95;4.70;;;16.70;99.90;;;;;;4821956;29;20050;-78
2023/05/08 01:58:35;;;;;;;8.93;4.65;;;16.80;99.90;;;;;;4837010;29;20042;-78
2023/05/08 02:01:02;;;;;;;7.32;4.20;;;16.70;99.90;;;;;;4824771;29;20041;-71
2023/05/08 02:03:30;;;;;;;7.30;4.30;;;16.70;99.90;;;;;;4839525;29;20034;-77
2023/05/08 02:05:58;;;;;;;7.40;4.47;;;16.70;99.90;;;;;;4839904;29;20033;-75
2023/05/08 02:08:25;;;;;;;9.43;5.07;;;16.60;99.90;;;;;;4824929;29;20026;-75
2023/05/08 02:10:52;;;;;;;9.65;5.18;;;16.60;99.90;;;;;;4867604;29;20055;-76
2023/05/08 02:13:20;;;;;;;9.77;5.18;;;16.50;99.90;;;;;;4862750;29;20489;-77
2023/05/08 02:15:52;;;;;;;8.77;4.78;;;16.40;99.90;;;;;;4881904;29;20473;-78
2023/05/08 02:18:21;;;;;;;8.57;5.17;;;16.40;99.90;;;;;;4879473;29;20021;-72
2023/05/08 02:20:49;;;;;;;10.23;5.47;;;16.30;99.90;;;;;;4879570;29;20408;-75
2023/05/08 02:23:17;;;;;;;8.88;5.00;;;16.30;99.90;;;;;;4862401;29;20057;-69
2023/05/08 02:25:44;;;;;;;8.25;5.00;;;16.20;99.90;;;;;;4879067;29;20392;-77
2023/05/08 02:28:10;;;;;;;8.63;4.75;;;16.20;99.90;;;;;;4862464;29;20031;-77
2023/05/08 02:30:40;;;;;;;7.57;4.85;;;16.20;99.90;;;;;;4878287;29;20017;-78
2023/05/08 02:33:09;;;;;;;6.88;4.45;;;16.20;99.90;;;;;;4878461;29;20044;-77
2023/05/08 02:35:35;;;;;;;8.45;5.00;;;16.20;99.90;;;;;;4862158;29;20504;-77
2023/05/08 02:38:02;;;;;;;9.55;5.80;;;16.10;99.90;;;;;;4862168;29;20088;-71
2023/05/08 02:40:29;;;;;;;14.35;5.72;;;16.20;99.90;;;;;;4862481;29;20390;-77
2023/05/08 02:42:56;;;;;;;9.00;5.55;;;16.10;99.90;;;;;;4865230;29;20037;-78
2023/05/08 02:45:31;;;;;;;10.00;4.95;;;16.10;99.90;;;;;;4862190;29;20029;-72
2023/05/08 02:48:10;;;;;;;10.05;6.22;;;16.10;99.90;;;;;;4862587;29;20033;-77
2023/05/08 02:50:52;;;;;;;9.30;5.18;;;16.10;99.90;;;;;;4862527;29;20064;-72
2023/05/08 02:53:25;;;;;;;9.68;5.38;;;16.20;99.90;;;;;;4862751;29;20041;-72
2023/05/08 02:55:59;;;;;;;9.35;5.55;;;16.20;99.90;;;;;;4869598;29;20100;-76
2023/05/08 02:58:32;;;;;;;12.32;6.40;;;16.10;99.90;;;;;;4861944;29;20036;-75
2023/05/08 03:01:30;;;;;;;9.43;5.65;;;16.10;99.90;;;;;;4883626;29;20056;-74
2023/05/08 03:04:06;;;;;;;12.75;6.70;;;16.10;99.90;;;;;;4859983;29;20072;-76
2023/05/08 03:06:43;;;;;;;10.13;6.10;;;16.10;99.90;;;;;;4877817;29;20843;-73
2023/05/08 03:09:18;;;;;;;12.00;6.55;;;16.10;99.90;;;;;;4861399;29;20470;-75
2023/05/08 03:11:48;;;;;;;11.95;6.43;;;16.10;99.90;;;;;;4860775;29;20068;-74
2023/05/08 03:14:18;;;;;;;11.77;7.18;;;16.10;99.90;;;;;;4861650;29;20378;-70
2023/05/08 03:16:46;;;;;;;14.25;8.02;;;16.00;99.90;;;;;;4862373;29;20040;-73
2023/05/08 03:19:22;;;;;;;14.15;7.68;;;15.90;99.90;;;;;;4877643;29;20048;-76
2023/05/08 03:21:50;;;;;;;13.57;8.13;;;15.90;99.90;;;;;;4861861;29;20120;-75
2023/05/08 03:24:19;;;;;;;14.25;8.70;;;15.90;99.90;;;;;;4878059;29;21573;-71
2023/05/08 03:26:46;;;;;;;17.70;8.55;;;15.90;99.90;;;;;;4861611;29;20579;-77
2023/05/08 03:29:15;;;;;;;17.73;9.15;;;15.90;99.90;;;;;;4861221;29;20059;-71
2023/05/08 03:31:43;;;;;;;17.98;9.52;;;15.90;99.90;;;;;;4859866;29;20049;-70
2023/05/08 03:34:12;;;;;;;13.93;9.35;;;15.90;99.90;;;;;;4860727;29;20097;-75
2023/05/08 03:36:39;;;;;;;14.50;9.00;;;15.90;99.90;;;;;;4861172;29;20231;-76
2023/05/08 03:39:06;;;;;;;17.08;9.00;;;15.80;99.90;;;;;;4871258;29;20044;-72
2023/05/08 03:41:32;;;;;;;17.90;9.65;;;15.80;99.90;;;;;;4880999;29;20036;-71
2023/05/08 03:44:02;;;;;;;13.40;9.07;;;15.80;99.90;;;;;;4881183;29;20048;-76
2023/05/08 03:46:31;;;;;;;17.63;9.32;;;15.80;99.90;;;;;;4880821;29;20103;-76
2023/05/08 03:49:02;;;;;;;14.02;9.30;;;15.80;99.90;;;;;;4897729;29;20024;-76
2023/05/08 03:51:28;;;;;;;15.07;10.02;;;15.70;99.90;;;;;;4881092;29;20032;-77
2023/05/08 03:53:54;;;;;;;16.40;9.45;;;15.70;99.90;;;;;;4881115;29;20069;-73
2023/05/08 03:56:20;;;;;;;18.90;9.98;;;15.70;99.90;;;;;;4888513;29;20056;-76
2023/05/08 03:59:04;;;;;;;19.58;10.43;;;15.70;99.90;;;;;;4889787;29;20041;-74
2023/05/08 04:01:48;;;;;;;17.45;10.55;;;15.70;99.90;;;;;;4893216;29;20036;-70
2023/05/08 04:04:23;;;;;;;17.10;10.93;;;15.60;99.90;;;;;;4910145;29;20115;-74
2023/05/08 04:07:05;;;;;;;17.30;11.48;;;15.60;99.90;;;;;;4880765;29;20553;-78
2023/05/08 04:09:43;;;;;;;18.25;11.30;;;15.50;99.90;;;;;;4880398;29;20036;-78
2023/05/08 04:12:18;;;;;;;17.77;11.23;;;15.50;99.90;;;;;;4886691;29;20049;-78
2023/05/08 04:14:52;;;;;;;17.13;11.48;;;15.50;99.90;;;;;;4885805;29;20029;-70
2023/05/08 04:17:38;;;;;;;18.50;11.70;;;15.50;99.90;;;;;;4863265;29;20076;-80
2023/05/08 04:20:16;;;;;;;20.52;13.02;;;15.50;99.90;;;;;;4870326;29;20027;-73
2023/05/08 04:22:44;;;;;;;19.70;14.00;;;15.50;99.90;;;;;;4877477;29;20032;-79
2023/05/08 04:25:11;;;;;;;20.42;13.35;;;15.40;99.90;;;;;;4880032;29;20492;-70
2023/05/08 04:27:38;;;;;;;19.13;14.02;;;15.50;99.90;;;;;;4877238;29;20036;-80
2023/05/08 04:30:05;;;;;;;25.42;16.20;;;15.40;99.90;;;;;;4871062;29;20032;-79
2023/05/08 04:32:34;;;;;;;22.02;14.23;;;15.40;99.90;;;;;;4872520;29;20128;-80
2023/05/08 04:35:00;;;;;;;21.92;14.35;;;15.40;99.90;;;;;;4880380;29;20115;-80
2023/05/08 04:37:30;;;;;;;20.55;14.63;;;15.40;99.90;;;;;;4872831;29;20029;-76
2023/05/08 04:39:58;;;;;;;24.75;15.27;;;15.40;99.90;;;;;;4879312;29;20515;-75
2023/05/08 04:42:26;;;;;;;24.63;14.13;;;15.50;99.90;;;;;;4880393;29;20489;-78
2023/05/08 04:44:54;;;;;;;21.30;14.07;;;15.50;99.90;;;;;;4880336;29;20060;-80
2023/05/08 04:47:22;;;;;;;24.42;15.05;;;15.50;99.90;;;;;;4880073;29;20370;-73
2023/05/08 04:49:49;;;;;;;21.70;14.02;;;15.60;99.90;;;;;;4880422;29;20041;-79
2023/05/08 04:52:15;;;;;;;21.58;14.50;;;15.50;99.90;;;;;;4880242;29;20076;-79
2023/05/08 04:54:40;;;;;;;21.67;15.18;;;15.50;99.90;;;;;;4879993;29;20048;-79
2023/05/08 04:57:07;;;;;;;22.00;14.32;;;15.60;99.90;;;;;;4879992;29;20080;-79
2023/05/08 04:59:33;;;;;;;24.02;14.43;;;15.50;99.90;;;;;;4896945;29;20035;-72
2023/05/08 05:02:02;;;;;;;25.13;15.15;;;15.50;99.90;;;;;;4879952;29;20151;-78
2023/05/08 05:04:28;;;;;;;23.17;15.63;;;15.60;99.90;;;;;;4880088;29;20021;-72
2023/05/08 05:06:55;;;;;;;22.83;14.88;;;15.50;99.90;;;;;;4880504;29;20029;-79
2023/05/08 05:09:21;;;;;;;21.42;15.00;;;15.50;99.90;;;;;;4864499;29;20111;-74
2023/05/08 05:11:48;;;;;;;21.02;15.02;;;15.50;99.90;;;;;;4879769;29;20044;-79
2023/05/08 05:14:14;;;;;;;24.63;14.68;;;15.50;99.90;;;;;;4879831;29;20032;-76
2023/05/08 05:16:40;;;;;;;16.63;11.50;;;15.40;99.90;;;;;;4896876;29;20080;-80
2023/05/08 05:19:06;;;;;;;20.15;14.05;;;15.40;99.90;;;;;;4879669;29;20040;-80
2023/05/08 05:21:33;;;;;;;20.35;11.10;;;15.40;99.90;;;;;;4879909;29;20024;-79
2023/05/08 05:23:59;;;;;;;18.65;12.10;;;15.30;99.90;;;;;;4879572;29;20036;-71
2023/05/08 05:26:25;;;;;;;18.33;11.18;;;15.30;99.90;;;;;;4889153;29;20088;-79
2023/05/08 05:28:51;;;;;;;17.60;11.23;;;15.30;99.90;;;;;;4879306;29;20036;-77
2023/05/08 05:31:17;;;;;;;16.80;10.63;;;15.20;99.90;;;;;;4879686;29;20025;-78
2023/05/08 05:33:43;;;;;;;15.45;9.40;;;15.30;99.90;;;;;;4877996;29;20051;-72
2023/05/08 05:36:09;;;;;;;13.68;8.48;;;15.20;99.90;;;;;;4875994;29;20037;-71
2023/05/08 05:38:35;;;;;;;12.93;7.63;;;15.10;99.90;;;;;;4880012;29;20044;-77
2023/05/08 05:41:01;;;;;;;14.15;8.30;;;14.90;99.90;;;;;;4896474;29;20150;-81
2023/05/08 05:43:27;;;;;;;11.85;7.10;;;14.70;99.90;;;;;;4879886;29;20032;-79
2023/05/08 05:45:54;;;;;;;13.57;6.57;;;14.60;99.90;;;;;;4894354;29;20028;-79
2023/05/08 05:48:21;;;;;;;12.23;7.35;;;14.50;99.90;;;;;;4874991;29;20032;-77
2023/05/08 05:50:48;;;;;;;13.10;7.47;;;14.30;99.90;;;;;;4872225;29;20493;-71
2023/05/08 05:53:14;;;;;;;14.20;7.35;;;14.30;99.90;;;;;;4888013;29;20065;-73
2023/05/08 05:55:40;;;;;;;10.88;6.78;;;14.20;99.90;;;;;;4873088;29;20154;-71
2023/05/08 05:58:06;;;;;;;12.70;6.35;;;14.00;99.90;;;;;;4882916;29;20415;-79
2023/05/08 06:00:33;;;;;;;12.27;6.57;;;14.00;99.90;;;;;;4894112;29;20119;-78
2023/05/08 06:03:01;;;;;;;11.35;6.18;;;13.90;99.90;;;;;;4882900;29;20056;-80
2023/05/08 06:05:27;;;;;;;9.60;6.20;;;13.80;99.90;;;;;;4866792;29;20036;-73
2023/05/08 06:07:53;;;;;;;11.00;6.72;;;13.80;99.90;;;;;;4897615;29;20048;-72
2023/05/08 06:10:19;;;;;;;11.05;5.82;;;13.80;99.90;;;;;;4899647;29;20075;-80
2023/05/08 06:12:44;;;;;;;10.85;6.20;;;13.70;99.90;;;;;;4897334;29;20034;-80
2023/05/08 06:15:11;;;;;;;6.75;4.20;;;13.80;99.90;;;;;;4882567;29;20092;-80
2023/05/08 06:17:37;;;;;;;7.35;4.28;;;13.80;99.90;;;;;;4873136;29;20098;-71
2023/05/08 06:20:04;;;;;;;7.63;4.75;;;13.80;99.90;;;;;;4871835;29;20033;-71
2023/05/08 06:22:30;;;;;;;7.35;4.30;;;13.90;99.90;;;;;;4890663;29;20474;-72
2023/05/08 06:24:56;;;;;;;7.00;4.93;;;13.90;99.90;;;;;;4896106;29;20033;-80
2023/05/08 06:27:22;;;;;;;6.75;4.25;;;13.70;99.90;;;;;;4897771;29;20032;-72
2023/05/08 06:29:52;;;;;;;6.85;4.35;;;13.60;99.90;;;;;;4900217;29;20020;-79
2023/05/08 06:32:20;;;;;;;7.82;4.72;;;13.60;99.90;;;;;;4891865;29;20512;-79
2023/05/08 06:34:46;;;;;;;7.57;4.78;;;13.60;99.90;;;;;;4898735;29;20029;-79
2023/05/08 06:37:12;;;;;;;7.95;5.05;;;13.60;99.90;;;;;;4897444;29;20036;-80
2023/05/08 06:39:38;;;;;;;10.68;6.10;;;13.50;99.90;;;;;;4893022;29;20432;-72
2023/05/08 06:42:05;;;;;;;7.55;4.88;;;13.40;99.90;;;;;;4894834;29;20037;-78
2023/05/08 06:44:32;;;;;;;9.00;5.03;;;13.50;99.90;;;;;;4896818;29;20021;-78
2023/05/08 06:46:58;;;;;;;9.65;4.93;;;13.40;99.90;;;;;;4890083;29;20036;-77
2023/05/08 06:49:23;;;;;;;17.90;5.30;;;13.50;99.90;;;;;;4878008;29;20460;-77
2023/05/08 06:51:49;;;;;;;9.23;5.22;;;13.50;99.90;;;;;;4883402;29;20172;-79
2023/05/08 06:54:16;;;;;;;8.88;4.97;;;13.50;99.90;;;;;;4893841;29;20180;-73
2023/05/08 06:56:42;;;;;;;8.40;4.45;;;13.40;99.90;;;;;;4898591;29;20425;-79
2023/05/08 06:59:07;;;;;;;7.13;4.35;;;13.50;99.90;;;;;;4898517;29;20031;-78
2023/05/08 07:01:33;;;;;;;8.75;5.07;;;13.40;99.90;;;;;;4897282;29;20028;-74
2023/05/08 07:04:00;;;;;;;11.98;7.47;;;13.40;99.90;;;;;;4898727;29;20079;-77
2023/05/08 07:06:26;;;;;;;12.55;5.43;;;13.30;99.90;;;;;;4888149;29;20033;-78
2023/05/08 07:08:52;;;;;;;6.85;4.30;;;13.30;99.90;;;;;;4895852;29;20084;-77
2023/05/08 07:11:18;;;;;;;9.27;4.60;;;13.40;99.90;;;;;;4900189;29;21369;-78
2023/05/08 07:13:46;;;;;;;7.70;4.60;;;13.40;99.90;;;;;;4896316;29;20040;-72
2023/05/08 07:16:16;;;;;;;7.78;5.30;;;13.40;99.90;;;;;;4898129;29;20496;-77
2023/05/08 07:18:42;;;;;;;8.07;4.95;;;13.40;99.90;;;;;;4898124;29;20032;-78
2023/05/08 07:21:08;;;;;;;8.80;4.95;;;13.40;99.90;;;;;;4896604;29;20029;-79
2023/05/08 07:23:35;;;;;;;7.85;4.50;;;13.40;99.90;;;;;;4894076;29;20025;-75
2023/05/08 07:26:01;;;;;;;8.30;5.18;;;13.40;99.90;;;;;;4890129;29;20537;-79
2023/05/08 07:28:26;;;;;;;7.63;5.10;;;13.30;99.90;;;;;;4896949;29;20103;-79
2023/05/08 07:30:52;;;;;;;8.90;5.38;;;13.20;99.90;;;;;;4880049;29;20442;-78
2023/05/08 07:33:18;;;;;;;7.55;4.80;;;13.20;99.90;;;;;;4894623;29;20040;-79
2023/05/08 07:35:44;;;;;;;9.05;6.10;;;13.20;99.90;;;;;;4874031;29;20048;-75
2023/05/08 07:38:10;;;;;;;10.43;5.80;;;13.10;99.90;;;;;;4894141;29;20052;-73
2023/05/08 07:40:36;;;;;;;8.07;5.35;;;13.20;99.90;;;;;;4888698;29;20385;-78
2023/05/08 07:43:02;;;;;;;9.32;5.68;;;13.10;99.90;;;;;;4896420;29;20461;-78
2023/05/08 07:45:28;;;;;;;9.15;5.68;;;13.20;99.90;;;;;;4896336;29;20489;-79
2023/05/08 07:47:56;;;;;;;10.68;6.38;;;13.10;99.90;;;;;;4881446;29;20049;-73
2023/05/08 07:50:24;;;;;;;14.98;5.95;;;13.10;99.90;;;;;;4888768;29;20107;-71
2023/05/08 07:52:51;;;;;;;8.73;5.40;;;13.10;99.90;;;;;;4886387;29;20127;-77
2023/05/08 07:55:17;;;;;;;10.18;5.25;;;13.10;99.90;;;;;;4893675;29;20091;-74
2023/05/08 07:57:44;;;;;;;9.50;5.82;;;13.10;99.90;;;;;;4896948;29;20481;-73
2023/05/08 08:00:12;;;;;;;9.90;5.93;;;13.10;99.90;;;;;;4889796;29;20033;-79
2023/05/08 08:02:43;;;;;;;10.90;6.50;;;13.00;99.90;;;;;;4885610;29;20044;-71
2023/05/08 08:05:09;;;;;;;9.45;5.90;;;13.10;99.90;;;;;;4897692;29;20029;-76
2023/05/08 08:07:35;;;;;;;10.88;6.28;;;13.00;99.90;;;;;;4897566;29;20047;-73
2023/05/08 08:10:03;;;;;;;9.13;6.07;;;13.10;99.90;;;;;;4897462;29;20064;-77
2023/05/08 08:12:29;;;;;;;8.35;5.75;;;13.10;99.90;;;;;;4894993;29;20025;-72
2023/05/08 08:14:55;;;;;;;12.35;6.00;;;13.10;99.90;;;;;;4897527;29;20048;-77
2023/05/08 08:17:21;;;;;;;13.20;6.20;;;13.10;99.90;;;;;;4897306;29;20025;-73
2023/05/08 08:19:47;;;;;;;11.15;6.78;;;13.00;99.90;;;;;;4896992;29;20465;-72
2023/05/08 08:22:13;;;;;;;9.85;5.85;;;13.00;99.90;;;;;;4897211;29;20020;-78
2023/05/08 08:24:39;;;;;;;12.90;7.13;;;13.10;99.90;;;;;;4897358;29;20069;-71
2023/05/08 08:27:05;;;;;;;14.73;5.88;;;13.20;99.90;;;;;;4898037;29;20453;-75
2023/05/08 08:29:31;;;;;;;13.98;7.18;;;13.10;99.90;;;;;;4897261;29;20032;-77
2023/05/08 08:31:57;;;;;;;11.43;6.68;;;13.00;99.90;;;;;;4895650;29;20036;-77
2023/05/08 08:34:23;;;;;;;9.48;5.57;;;13.10;99.90;;;;;;4893580;29;20028;-75
2023/05/08 08:36:48;;;;;;;9.18;6.03;;;12.90;99.90;;;;;;4897666;29;20064;-77
2023/05/08 08:39:14;;;;;;;9.48;5.35;;;12.90;99.90;;;;;;4896733;29;20091;-72
2023/05/08 08:41:40;;;;;;;10.05;6.03;;;12.90;99.90;;;;;;4895200;29;20041;-72
2023/05/08 08:44:06;;;;;;;9.73;5.47;;;12.90;99.90;;;;;;4895384;29;20040;-75
2023/05/08 08:46:32;;;;;;;9.77;5.60;;;13.00;99.90;;;;;;4886563;29;20393;-71
2023/05/08 08:49:01;;;;;;;9.18;5.65;;;13.00;99.90;;;;;;4892880;29;20033;-71
2023/05/08 08:52:27;;;;;;;10.38;5.95;;;13.10;99.90;;;;;;4894844;29;20107;-73
2023/05/08 08:54:55;;;;;;;13.68;6.43;;;13.20;99.90;;;;;;4775350;29;20086;-71
2023/05/08 08:57:23;;;;;;;9.60;5.70;;;13.20;99.90;;;;;;4784745;30;20023;-77
2023/05/08 08:59:49;;;;;;;7.70;5.57;;;13.30;99.90;;;;;;4784555;30;20055;-72
2023/05/08 09:02:18;;;;;;;9.75;5.85;;;13.10;99.90;;;;;;4784758;30;20037;-76
2023/05/08 09:04:44;;;;;;;10.93;5.72;;;13.10;99.90;;;;;;4782858;30;20036;-75
2023/05/08 09:07:11;;;;;;;9.88;5.78;;;12.90;99.90;;;;;;4778830;30;20040;-77
2023/05/08 09:09:40;;;;;;;16.00;6.22;;;12.90;99.90;;;;;;4776429;30;20089;-76
2023/05/08 09:12:06;;;;;;;8.50;5.93;;;13.00;99.90;;;;;;4781355;30;20055;-73
2023/05/08 09:14:32;;;;;;;11.07;5.50;;;12.90;99.90;;;;;;4776523;30;20155;-78
2023/05/08 09:16:58;;;;;;;10.55;6.10;;;12.90;99.90;;;;;;4780283;29;20035;-71
2023/05/08 09:19:26;;;;;;;6.97;5.20;;;12.90;99.90;;;;;;4783657;30;20551;-75
2023/05/08 09:21:53;;;;;;;12.80;7.82;;;12.80;99.90;;;;;;4783633;30;20035;-71
2023/05/08 09:24:19;;;;;;;10.32;5.70;;;12.80;99.90;;;;;;4778820;30;20382;-70
2023/05/08 09:26:45;;;;;;;10.13;5.60;;;12.70;99.90;;;;;;4770867;30;20043;-71
2023/05/08 09:29:21;;;;;;;10.77;5.68;;;12.70;99.90;;;;;;4784676;30;20081;-78
2023/05/08 09:31:49;;;;;;;9.82;5.75;;;12.50;99.90;;;;;;4872209;29;20450;-78
2023/05/08 09:34:29;;;;;;;10.90;6.35;;;12.60;99.90;;;;;;4899193;29;20064;-77
2023/05/08 09:37:16;;;;;;;10.48;5.95;;;12.60;99.90;;;;;;4895485;29;20036;-72
2023/05/08 09:39:42;;;;;;;12.77;5.20;;;12.40;99.90;;;;;;4895969;29;20467;-72
2023/05/08 09:42:08;;;;;;;10.70;5.45;;;12.40;99.90;;;;;;4899982;29;20046;-71
2023/05/08 09:44:46;;;;;;;13.48;6.50;;;12.30;99.90;;;;;;4893708;29;20045;-71
2023/05/08 09:47:14;;;;;;;9.18;5.88;;;12.00;99.90;;;;;;4896023;29;20043;-71
2023/05/08 09:50:06;;;;;;;10.68;5.65;;;12.10;99.90;;;;;;4895929;29;20511;-73
2023/05/08 09:52:33;;;;;;;9.60;5.80;;;12.00;99.90;;;;;;4900189;29;20075;-71
2023/05/08 09:55:05;;;;;;;13.35;7.20;;;12.00;99.90;;;;;;4899712;29;20033;-78
2023/05/08 09:57:35;;;;;;;12.15;5.68;;;11.90;99.90;;;;;;4900290;29;20036;-71
2023/05/08 10:00:05;;;;;;;9.88;6.38;;;11.80;99.90;;;;;;4899840;29;20033;-72
2023/05/08 10:02:33;;;;;;;10.15;5.60;;;11.90;99.90;;;;;;4900029;29;20123;-77
2023/05/08 10:04:59;;;;;;;14.02;5.47;;;11.80;99.90;;;;;;4882976;29;20107;-77
2023/05/08 10:07:33;;;;;;;8.88;5.68;;;11.80;99.90;;;;;;4899542;29;20119;-71
2023/05/08 10:10:05;;;;;;;9.40;5.25;;;11.80;99.90;;;;;;4899640;29;20049;-76
2023/05/08 10:12:32;;;;;;;;;;;11.90;99.90;;;;;;4899794;29;20032;-71
2023/05/08 10:14:58;;;;;;;10.88;4.97;;;11.90;99.90;;;;;;4899830;29;19915;-71
2023/05/08 10:17:30;;;;;;;9.90;4.88;;;12.00;99.90;;;;;;4899702;29;20029;-71
2023/05/08 10:20:04;;;;;;;9.70;5.30;;;11.90;99.90;;;;;;4899020;29;20028;-78
2023/05/08 10:22:33;;;;;;;9.23;5.47;;;12.00;99.90;;;;;;4899353;29;20473;-71
2023/05/08 10:25:01;;;;;;;9.23;5.68;;;11.90;99.90;;;;;;4892672;29;20043;-72
2023/05/08 10:27:45;;;;;;;7.25;4.70;;;12.00;99.90;;;;;;4894299;29;20056;-76
2023/05/08 10:30:16;;;;;;;8.98;4.43;;;12.00;99.90;;;;;;4888156;29;20028;-72
2023/05/08 10:32:50;;;;;;;7.05;5.00;;;12.10;99.90;;;;;;4887811;29;20045;-72
2023/05/08 10:35:17;;;;;;;8.98;5.70;;;12.00;99.90;;;;;;4887674;29;20036;-71
2023/05/08 10:37:46;;;;;;;9.50;5.68;;;11.90;99.90;;;;;;4898839;29;20036;-77
2023/05/08 10:40:14;;;;;;;8.95;5.15;;;12.00;99.90;;;;;;4899061;29;20036;-72
2023/05/08 10:42:41;;;;;;;8.88;5.18;;;12.10;99.90;;;;;;4898920;29;20044;-76
2023/05/08 10:45:08;;;;;;;10.25;5.75;;;12.20;99.90;;;;;;4898231;29;20073;-72
2023/05/08 10:48:03;;;;;;;9.10;5.70;;;12.20;99.90;;;;;;4898747;29;20076;-71
2023/05/08 10:51:01;;;;;;;9.43;6.47;;;12.20;99.90;;;;;;4896405;29;20489;-77
2023/05/08 10:53:41;;;;;;;10.52;5.60;;;12.40;99.90;;;;;;4892836;29;20032;-72
2023/05/08 10:56:08;;;;;;;10.30;5.05;;;12.50;99.90;;;;;;4895257;29;20042;-76
2023/05/08 10:58:38;;;;;;;10.35;5.68;;;12.50;99.90;;;;;;4898856;29;20106;-76
2023/05/08 11:01:06;;;;;;;8.43;5.68;;;12.60;99.90;;;;;;4897611;29;20059;-74
2023/05/08 11:03:42;;;;;;;10.23;5.50;;;12.70;99.90;;;;;;4898670;29;20025;-71
2023/05/08 11:06:08;;;;;;;10.32;6.60;;;12.80;99.90;;;;;;4898849;29;20075;-71
2023/05/08 11:08:50;;;;;;;9.77;5.40;;;12.80;99.90;;;;;;4898580;29;20107;-76
2023/05/08 11:11:32;;;;;;;10.63;5.82;;;13.00;99.90;;;;;;4886615;29;20043;-73
2023/05/08 11:14:13;;;;;;;;;;;13.10;99.90;;;;;;4898887;29;20107;-75
2023/05/08 11:17:00;;;;;;;8.77;4.80;;;13.30;99.90;;;;;;4897451;29;19918;-77
2023/05/08 11:19:27;;;;;;;9.90;5.57;;;13.30;99.90;;;;;;4898298;29;20047;-79
2023/05/08 11:22:14;;;;;;;11.02;6.22;;;13.40;99.90;;;;;;4898370;29;20017;-73
2023/05/08 11:24:53;;;;;;;10.02;5.50;;;13.40;99.90;;;;;;4880422;29;20032;-72
2023/05/08 11:27:36;;;;;;;10.00;5.32;;;13.50;99.90;;;;;;4897174;29;20108;-78
2023/05/08 11:30:28;;;;;;;;;;;13.40;99.90;;;;;;4885342;29;20032;-72
2023/05/08 11:33:03;;;;;;;11.80;6.22;;;13.30;99.90;;;;;;4889098;29;19919;-78
2023/05/08 11:35:45;;;;;;;12.70;6.45;;;13.40;99.90;;;;;;4888091;29;20089;-79
2023/05/08 11:38:20;;;;;;;12.70;6.13;;;13.50;99.90;;;;;;4878272;29;20105;-71
2023/05/08 11:40:57;;;;;;;13.90;6.35;;;13.60;99.90;;;;;;4879007;29;20033;-75
2023/05/08 11:43:32;;;;;;;11.40;7.05;;;13.70;99.90;;;;;;4880803;29;20047;-77
2023/05/08 11:46:05;;;;;;;10.77;6.50;;;14.00;99.90;;;;;;4888175;29;20118;-78
2023/05/08 11:48:32;;;;;;;10.45;5.65;;;14.10;99.90;;;;;;4902293;29;20032;-72
2023/05/08 11:50:58;;;;;;;11.73;5.95;;;14.00;99.90;;;;;;4876403;29;20366;-79
2023/05/08 11:53:24;;;;;;;10.48;6.63;;;14.20;99.90;;;;;;4881140;29;20097;-72
2023/05/08 11:55:54;;;;;;;10.57;5.95;;;14.30;99.90;;;;;;4882548;29;20025;-72
2023/05/08 11:58:20;;;;;;;11.45;5.78;;;14.50;99.90;;;;;;4893642;29;20075;-72
2023/05/08 12:00:47;;;;;;;9.60;5.72;;;14.70;99.90;;;;;;4897382;29;20068;-73
2023/05/08 12:03:14;;;;;;;11.05;5.82;;;14.80;99.90;;;;;;4897690;29;20092;-77
2023/05/08 12:05:41;;;;;;;12.65;6.30;;;15.10;99.90;;;;;;4897955;29;20100;-77
2023/05/08 12:08:11;;;;;;;11.75;7.15;;;15.50;99.90;;;;;;4897714;29;20037;-77
2023/05/08 12:10:45;;;;;;;10.25;5.55;;;15.80;99.90;;;;;;4898049;29;20398;-79
2023/05/08 12:13:29;;;;;;;9.65;6.35;;;15.80;99.90;;;;;;4897166;29;20170;-74
2023/05/08 12:15:58;;;;;;;8.93;5.63;;;15.90;99.90;;;;;;4897540;29;20049;-73
2023/05/08 12:18:25;;;;;;;10.15;5.88;;;16.20;99.90;;;;;;4897154;29;20047;-71
2023/05/08 12:20:52;;;;;;;10.07;6.20;;;16.30;99.90;;;;;;4897158;29;20434;-78
2023/05/08 12:23:18;;;;;;;10.85;6.72;;;16.20;99.90;;;;;;4897288;29;20116;-77
2023/05/08 12:25:44;;;;;;;11.32;6.35;;;16.10;99.90;;;;;;4897249;29;20045;-71
2023/05/08 12:28:10;;;;;;;15.38;6.55;;;16.30;99.90;;;;;;4897396;29;20035;-71
2023/05/08 12:30:36;;;;;;;10.75;6.07;;;16.00;99.90;;;;;;4897264;29;20024;-72
2023/05/08 12:33:03;;;;;;;10.98;6.88;;;16.20;99.90;;;;;;4897117;29;20092;-72
2023/05/08 12:35:30;;;;;;;11.02;7.30;;;16.20;99.90;;;;;;4897431;29;20032;-74
2023/05/08 12:38:02;;;;;;;11.98;6.95;;;16.60;99.90;;;;;;4896896;29;20048;-76
2023/05/08 12:40:30;;;;;;;;;;;16.80;99.90;;;;;;4897646;29;20039;-78
2023/05/08 12:42:56;;;;;;;10.20;6.88;;;16.70;99.90;;;;;;4896957;29;19907;-76
2023/05/08 12:45:41;;;;;;;11.77;6.82;;;16.80;99.90;;;;;;4897261;29;20100;-79
2023/05/08 12:48:12;;;;;;;9.77;6.13;;;16.80;99.90;;;;;;4890275;29;20025;-72
2023/05/08 12:50:43;;;;;;;11.65;6.90;;;16.90;99.90;;;;;;4892003;29;20039;-78
2023/05/08 12:53:10;;;;;;;10.32;6.82;;;16.80;99.90;;;;;;4897157;29;20056;-72
2023/05/08 12:55:37;;;;;;;11.05;7.03;;;16.90;99.90;;;;;;4896754;29;20098;-79